createdAt,value
2023-08-06T00:00:02.104Z,4.90
2023-08-06T00:01:04.028Z,4.25
2023-08-06T00:02:05.591Z,4.47
2023-08-06T00:03:07.515Z,4.35
2023-08-06T00:04:09.115Z,4.70
2023-08-06T00:05:10.650Z,4.32
2023-08-06T00:06:12.166Z,4.88
2023-08-06T00:07:13.826Z,4.75
2023-08-06T00:08:15.677Z,4.22
2023-08-06T00:09:17.359Z,4.30
2023-08-06T00:10:18.957Z,4.07
2023-08-06T00:11:20.684Z,3.95
2023-08-06T00:12:22.200Z,3.65
2023-08-06T00:13:24.070Z,3.67
2023-08-06T00:14:25.611Z,2.67
2023-08-06T00:15:27.119Z,3.15
2023-08-06T00:16:28.701Z,3.00
2023-08-06T00:17:30.297Z,3.30
2023-08-06T00:18:32.341Z,2.63
2023-08-06T00:19:33.875Z,2.58
2023-08-06T00:20:35.408Z,2.80
2023-08-06T00:21:38.608Z,2.88
2023-08-06T00:22:41.526Z,2.22
2023-08-06T00:23:43.408Z,2.55
2023-08-06T00:24:45.001Z,2.92
2023-08-06T00:25:46.581Z,2.75
2023-08-06T00:26:48.077Z,2.22
2023-08-06T00:27:49.635Z,2.30
2023-08-06T00:28:51.491Z,2.33
2023-08-06T00:29:53.599Z,2.40
2023-08-06T00:30:55.738Z,2.38
2023-08-06T00:31:57.326Z,2.38
2023-08-06T00:32:59.034Z,2.50
2023-08-06T00:34:00.927Z,2.30
2023-08-06T00:35:02.756Z,2.30
2023-08-06T00:36:04.289Z,2.55
2023-08-06T00:37:05.908Z,2.67
2023-08-06T00:38:07.451Z,2.40
2023-08-06T00:39:09.384Z,2.40
2023-08-06T00:40:10.911Z,2.35
2023-08-06T00:41:12.708Z,2.20
2023-08-06T00:42:14.292Z,2.17
2023-08-06T00:43:15.911Z,2.58
2023-08-06T00:44:17.779Z,1.80
2023-08-06T00:45:19.392Z,2.45
2023-08-06T00:46:21.537Z,1.98
2023-08-06T00:47:23.172Z,2.50
2023-08-06T00:48:24.734Z,2.40
2023-08-06T00:49:26.609Z,2.55
2023-08-06T00:50:28.142Z,2.38
2023-08-06T00:51:29.687Z,2.10
2023-08-06T00:52:31.280Z,1.95
2023-08-06T00:53:32.844Z,2.08
2023-08-06T00:54:34.848Z,2.28
2023-08-06T00:55:36.571Z,2.53
2023-08-06T00:56:38.144Z,2.35
2023-08-06T00:57:39.710Z,2.35
2023-08-06T00:58:41.250Z,2.47
2023-08-06T00:59:43.155Z,2.55
2023-08-06T01:00:44.880Z,2.40
2023-08-06T01:01:46.603Z,2.22
2023-08-06T01:02:49.776Z,2.92
2023-08-06T01:03:51.564Z,2.60
2023-08-06T01:04:53.485Z,2.20
2023-08-06T01:05:55.023Z,2.33
2023-08-06T01:07:26.955Z,2.45
2023-08-06T01:08:51.058Z,2.55
2023-08-06T01:09:59.365Z,2.35
2023-08-06T01:11:22.482Z,2.30
2023-08-06T01:12:31.134Z,2.20
2023-08-06T01:13:50.226Z,2.35
2023-08-06T01:15:05.028Z,2.15
2023-08-06T01:16:06.946Z,2.03
2023-08-06T01:17:09.260Z,2.38
2023-08-06T01:18:11.652Z,2.40
2023-08-06T01:19:19.239Z,2.10
2023-08-06T01:20:21.114Z,2.03
2023-08-06T01:21:22.655Z,2.25
2023-08-06T01:22:24.184Z,2.42
2023-08-06T01:23:25.800Z,2.42
2023-08-06T01:24:27.387Z,2.20
2023-08-06T01:25:35.345Z,2.42
2023-08-06T01:26:40.166Z,1.83
2023-08-06T01:27:47.668Z,2.35
2023-08-06T01:29:11.026Z,2.30
2023-08-06T01:30:14.931Z,2.15
2023-08-06T01:31:20.301Z,2.25
2023-08-06T01:32:21.890Z,2.15
2023-08-06T01:33:23.544Z,2.35
2023-08-06T01:34:25.993Z,2.15
2023-08-06T01:35:28.255Z,2.20
2023-08-06T01:36:30.117Z,2.03
2023-08-06T01:37:31.726Z,2.22
2023-08-06T01:38:33.325Z,2.55
2023-08-06T01:39:34.960Z,2.20
2023-08-06T01:40:36.847Z,2.22
2023-08-06T01:41:38.435Z,2.15
2023-08-06T01:42:40.216Z,2.35
2023-08-06T01:43:42.401Z,2.38
2023-08-06T01:44:43.936Z,2.30
2023-08-06T01:45:45.796Z,2.42
2023-08-06T01:46:47.393Z,2.33
2023-08-06T01:47:49.003Z,2.40
2023-08-06T01:48:50.556Z,2.60
2023-08-06T01:49:52.077Z,2.50
2023-08-06T01:50:53.934Z,2.50
2023-08-06T01:51:55.447Z,2.65
2023-08-06T01:52:56.961Z,2.28
2023-08-06T01:53:58.471Z,2.75
2023-08-06T01:55:00.214Z,2.38
2023-08-06T01:56:02.245Z,2.60
2023-08-06T01:57:03.909Z,2.33
2023-08-06T01:58:05.509Z,2.50
2023-08-06T01:59:07.047Z,2.50
2023-08-06T02:00:09.074Z,2.78
2023-08-06T02:01:11.019Z,22.90
2023-08-06T02:02:12.593Z,20.20
2023-08-06T02:03:14.244Z,42.42
2023-08-06T02:04:15.779Z,41.90
2023-08-06T02:05:17.304Z,34.72
2023-08-06T02:06:19.189Z,27.85
2023-08-06T02:07:20.757Z,19.77
2023-08-06T02:08:22.314Z,16.70
2023-08-06T02:09:23.849Z,11.57
2023-08-06T02:10:25.430Z,4.40
2023-08-06T02:11:27.284Z,4.65
2023-08-06T02:12:28.813Z,6.10
2023-08-06T02:13:30.352Z,3.92
2023-08-06T02:14:31.971Z,2.97
2023-08-06T02:15:33.532Z,2.53
2023-08-06T02:16:35.408Z,2.33
2023-08-06T02:17:37.023Z,2.42
2023-08-06T02:18:38.584Z,1.90
2023-08-06T02:19:40.132Z,2.40
2023-08-06T02:20:42.044Z,1.80
2023-08-06T02:21:43.931Z,2.50
2023-08-06T02:22:45.494Z,2.90
2023-08-06T02:23:47.080Z,2.20
2023-08-06T02:24:50.485Z,2.33
2023-08-06T02:26:02.272Z,2.75
2023-08-06T02:27:03.930Z,2.53
2023-08-06T02:28:05.498Z,2.80
2023-08-06T02:29:07.019Z,2.10
2023-08-06T02:30:08.760Z,2.97
2023-08-06T02:31:10.698Z,2.83
2023-08-06T02:32:12.278Z,2.50
2023-08-06T02:33:13.819Z,2.10
2023-08-06T02:34:15.372Z,2.00
2023-08-06T02:35:16.914Z,2.17
2023-08-06T02:36:18.784Z,5.57
2023-08-06T02:37:20.314Z,23.88
2023-08-06T02:38:22.182Z,19.95
2023-08-06T02:39:23.784Z,7.75
2023-08-06T02:40:25.316Z,5.78
2023-08-06T02:41:27.333Z,15.10
2023-08-06T02:42:28.928Z,10.88
2023-08-06T02:43:30.571Z,4.30
2023-08-06T02:44:32.264Z,3.00
2023-08-06T02:45:33.841Z,2.53
2023-08-06T02:46:35.761Z,2.30
2023-08-06T02:47:37.323Z,2.33
2023-08-06T02:48:38.950Z,3.00
2023-08-06T02:49:40.462Z,2.80
2023-08-06T02:50:42.297Z,2.83
2023-08-06T02:51:46.478Z,2.72
2023-08-06T02:52:48.013Z,2.45
2023-08-06T02:53:50.561Z,2.22
2023-08-06T02:54:52.456Z,2.60
2023-08-06T02:55:54.177Z,2.60
2023-08-06T02:56:55.734Z,2.60
2023-08-06T02:57:57.325Z,2.50
2023-08-06T02:58:58.857Z,2.35
2023-08-06T03:00:00.394Z,2.15
2023-08-06T03:01:04.450Z,2.30
2023-08-06T03:02:06.401Z,2.78
2023-08-06T03:03:07.972Z,2.20
2023-08-06T03:04:09.543Z,2.10
2023-08-06T03:05:11.083Z,2.95
2023-08-06T03:06:12.965Z,2.58
2023-08-06T03:07:14.498Z,2.28
2023-08-06T03:08:16.092Z,2.53
2023-08-06T03:09:18.258Z,2.13
2023-08-06T03:10:21.011Z,2.60
2023-08-06T03:11:22.925Z,2.67
2023-08-06T03:12:24.432Z,2.42
2023-08-06T03:13:26.042Z,2.75
2023-08-06T03:14:27.582Z,2.40
2023-08-06T03:15:29.115Z,2.50
2023-08-06T03:16:31.645Z,2.55
2023-08-06T03:17:33.212Z,2.83
2023-08-06T03:18:34.762Z,2.90
2023-08-06T03:19:36.305Z,2.50
2023-08-06T03:20:37.806Z,2.70
2023-08-06T03:21:39.659Z,1.98
2023-08-06T03:22:41.204Z,2.42
2023-08-06T03:23:43.344Z,2.85
2023-08-06T03:24:44.911Z,2.33
2023-08-06T03:25:47.737Z,2.28
2023-08-06T03:26:49.277Z,2.50
2023-08-06T03:27:50.790Z,2.30
2023-08-06T03:28:52.339Z,2.33
2023-08-06T03:29:53.939Z,2.78
2023-08-06T03:31:05.253Z,2.60
2023-08-06T03:32:07.239Z,2.33
2023-08-06T03:33:08.785Z,2.20
2023-08-06T03:34:10.303Z,2.38
2023-08-06T03:35:11.812Z,2.33
2023-08-06T03:36:13.670Z,2.40
2023-08-06T03:37:15.194Z,2.72
2023-08-06T03:38:16.716Z,2.40
2023-08-06T03:39:18.262Z,2.58
2023-08-06T03:40:20.392Z,2.75
2023-08-06T03:41:22.057Z,2.70
2023-08-06T03:42:23.571Z,2.42
2023-08-06T03:43:25.088Z,2.80
2023-08-06T03:44:28.090Z,2.40
2023-08-06T03:45:29.967Z,2.72
2023-08-06T03:46:35.000Z,2.60
2023-08-06T03:47:36.712Z,2.10
2023-08-06T03:48:38.321Z,2.97
2023-08-06T03:49:39.895Z,2.88
2023-08-06T03:50:42.499Z,2.75
2023-08-06T03:51:44.079Z,3.00
2023-08-06T03:52:45.618Z,2.92
2023-08-06T03:53:47.200Z,2.80
2023-08-06T03:54:48.722Z,2.45
2023-08-06T03:55:50.578Z,3.20
2023-08-06T03:56:52.151Z,2.67
2023-08-06T03:57:53.702Z,2.50
2023-08-06T03:58:55.268Z,2.30
2023-08-06T03:59:56.823Z,2.63
2023-08-06T04:01:00.358Z,2.97
2023-08-06T04:02:01.902Z,2.53
2023-08-06T04:03:03.603Z,2.67
2023-08-06T04:04:05.174Z,2.90
2023-08-06T04:05:06.821Z,3.20
2023-08-06T04:06:08.760Z,2.67
2023-08-06T04:07:10.278Z,2.20
2023-08-06T04:08:11.827Z,2.75
2023-08-06T04:09:14.402Z,3.10
2023-08-06T04:10:15.956Z,2.53
2023-08-06T04:11:17.849Z,2.95
2023-08-06T04:12:20.733Z,2.80
2023-08-06T04:13:24.059Z,2.42
2023-08-06T04:14:27.400Z,2.80
2023-08-06T04:15:28.922Z,3.33
2023-08-06T04:16:30.925Z,2.85
2023-08-06T04:17:32.630Z,2.72
2023-08-06T04:18:34.239Z,3.65
2023-08-06T04:19:35.769Z,2.72
2023-08-06T04:20:46.686Z,2.72
2023-08-06T04:21:48.590Z,2.95
2023-08-06T04:22:50.110Z,2.85
2023-08-06T04:23:51.634Z,2.78
2023-08-06T04:24:53.171Z,2.95
2023-08-06T04:25:58.660Z,2.83
2023-08-06T04:27:00.534Z,2.95
2023-08-06T04:28:02.076Z,2.90
2023-08-06T04:29:03.765Z,2.75
2023-08-06T04:30:08.255Z,2.72
2023-08-06T04:31:11.747Z,3.00
2023-08-06T04:32:13.676Z,2.70
2023-08-06T04:33:15.360Z,3.20
2023-08-06T04:34:16.871Z,2.72
2023-08-06T04:35:18.400Z,2.83
2023-08-06T04:36:19.979Z,3.50
2023-08-06T04:37:21.508Z,2.78
2023-08-06T04:38:24.814Z,3.20
2023-08-06T04:39:26.366Z,3.15
2023-08-06T04:40:28.049Z,2.90
2023-08-06T04:41:29.878Z,2.90
2023-08-06T04:42:31.414Z,3.10
2023-08-06T04:43:32.990Z,3.28
2023-08-06T04:44:34.539Z,3.13
2023-08-06T04:45:36.121Z,3.50
2023-08-06T04:46:38.047Z,3.20
2023-08-06T04:47:39.623Z,3.47
2023-08-06T04:48:41.203Z,3.03
2023-08-06T04:49:42.714Z,2.70
2023-08-06T04:50:50.878Z,3.00
2023-08-06T04:51:52.972Z,3.08
2023-08-06T04:52:55.506Z,2.90
2023-08-06T04:53:58.190Z,3.05
2023-08-06T04:54:59.728Z,3.53
2023-08-06T04:56:01.261Z,2.80
2023-08-06T04:57:03.293Z,3.20
2023-08-06T04:58:04.927Z,3.10
2023-08-06T04:59:07.041Z,3.17
2023-08-06T05:00:08.977Z,3.13
2023-08-06T05:01:10.896Z,3.03
2023-08-06T05:02:12.510Z,2.92
2023-08-06T05:03:14.083Z,3.15
2023-08-06T05:04:15.643Z,2.85
2023-08-06T05:05:17.330Z,2.85
2023-08-06T05:06:19.224Z,2.50
2023-08-06T05:07:20.748Z,3.00
2023-08-06T05:08:22.284Z,2.50
2023-08-06T05:09:23.806Z,2.95
2023-08-06T05:10:26.271Z,3.08
2023-08-06T05:11:28.157Z,3.40
2023-08-06T05:12:29.711Z,2.95
2023-08-06T05:13:31.310Z,3.10
2023-08-06T05:14:32.917Z,3.00
2023-08-06T05:15:34.431Z,2.90
2023-08-06T05:16:36.350Z,3.22
2023-08-06T05:17:37.941Z,2.42
2023-08-06T05:18:39.788Z,3.03
2023-08-06T05:19:41.340Z,2.70
2023-08-06T05:20:43.727Z,3.00
2023-08-06T05:21:45.263Z,3.03
2023-08-06T05:22:46.791Z,2.95
2023-08-06T05:23:48.420Z,3.00
2023-08-06T05:24:50.007Z,3.13
2023-08-06T05:25:51.908Z,2.85
2023-08-06T05:26:53.447Z,3.22
2023-08-06T05:27:55.016Z,2.40
2023-08-06T05:28:56.540Z,2.63
2023-08-06T05:29:58.077Z,2.92
2023-08-06T05:31:00.093Z,3.47
2023-08-06T05:32:01.664Z,3.38
2023-08-06T05:33:03.412Z,2.72
2023-08-06T05:34:04.996Z,2.95
2023-08-06T05:35:07.461Z,3.30
2023-08-06T05:36:09.355Z,3.33
2023-08-06T05:37:10.956Z,3.22
2023-08-06T05:38:12.486Z,2.90
2023-08-06T05:39:14.056Z,2.90
2023-08-06T05:40:15.611Z,2.75
2023-08-06T05:41:17.517Z,2.92
2023-08-06T05:42:19.049Z,2.70
2023-08-06T05:43:20.628Z,3.05
2023-08-06T05:44:22.779Z,2.75
2023-08-06T05:45:24.303Z,3.20
2023-08-06T05:46:26.155Z,3.20
2023-08-06T05:47:27.796Z,3.00
2023-08-06T05:48:29.452Z,2.63
2023-08-06T05:49:31.007Z,3.15
2023-08-06T05:50:32.570Z,3.00
2023-08-06T05:51:34.459Z,3.30
2023-08-06T05:52:35.990Z,3.00
2023-08-06T05:53:37.534Z,3.60
2023-08-06T05:54:39.108Z,3.40
2023-08-06T05:55:40.656Z,2.65
2023-08-06T05:56:42.520Z,2.90
2023-08-06T05:57:44.050Z,3.30
2023-08-06T05:58:47.450Z,2.97
2023-08-06T05:59:48.987Z,3.10
2023-08-06T06:00:50.530Z,3.33
2023-08-06T06:01:52.503Z,3.47
2023-08-06T06:02:54.333Z,3.55
2023-08-06T06:03:56.042Z,3.30
2023-08-06T06:04:57.584Z,3.38
2023-08-06T06:05:59.521Z,3.75
2023-08-06T06:07:01.402Z,3.00
2023-08-06T06:08:02.943Z,3.35
2023-08-06T06:09:04.557Z,3.10
2023-08-06T06:10:06.700Z,3.47
2023-08-06T06:11:08.250Z,3.20
2023-08-06T06:12:11.840Z,3.45
2023-08-06T06:13:13.355Z,3.75
2023-08-06T06:14:14.877Z,2.70
2023-08-06T06:15:16.458Z,3.33
2023-08-06T06:16:18.016Z,2.97
2023-08-06T06:17:19.981Z,3.10
2023-08-06T06:18:21.585Z,3.42
2023-08-06T06:19:23.124Z,3.25
2023-08-06T06:20:24.655Z,3.40
2023-08-06T06:21:26.180Z,3.70
2023-08-06T06:22:28.072Z,3.60
2023-08-06T06:23:29.613Z,3.58
2023-08-06T06:24:31.429Z,3.92
2023-08-06T06:25:32.992Z,3.70
2023-08-06T06:26:34.524Z,2.92
2023-08-06T06:27:36.446Z,3.78
2023-08-06T06:28:37.977Z,3.20
2023-08-06T06:29:40.123Z,3.50
2023-08-06T06:30:43.510Z,3.03
2023-08-06T06:31:45.157Z,3.25
2023-08-06T06:32:47.130Z,3.67
2023-08-06T06:33:48.674Z,3.30
2023-08-06T06:34:50.215Z,3.60
2023-08-06T06:35:51.758Z,3.60
2023-08-06T06:36:54.241Z,3.70
2023-08-06T06:37:56.207Z,3.25
2023-08-06T06:38:57.827Z,3.13
2023-08-06T06:39:59.440Z,3.25
2023-08-06T06:41:01.001Z,3.45
2023-08-06T06:42:02.557Z,3.45
2023-08-06T06:43:04.420Z,3.30
2023-08-06T06:44:06.973Z,4.20
2023-08-06T06:45:09.307Z,16.98
2023-08-06T06:46:10.975Z,14.27
2023-08-06T06:47:12.589Z,19.83
2023-08-06T06:48:14.496Z,8.88
2023-08-06T06:49:16.275Z,5.10
2023-08-06T06:50:17.972Z,4.25
2023-08-06T06:51:19.547Z,3.70
2023-08-06T06:52:21.121Z,3.38
2023-08-06T06:53:28.676Z,3.10
2023-08-06T06:54:30.407Z,3.97
2023-08-06T06:55:31.970Z,3.03
2023-08-06T06:56:33.637Z,3.20
2023-08-06T06:57:35.242Z,2.97
2023-08-06T06:58:37.244Z,3.08
2023-08-06T06:59:39.458Z,3.50
2023-08-06T07:00:41.040Z,3.10
2023-08-06T07:01:42.620Z,3.20
2023-08-06T07:02:44.234Z,3.22
2023-08-06T07:03:46.248Z,3.13
2023-08-06T07:04:47.907Z,2.40
2023-08-06T07:05:50.386Z,3.17
2023-08-06T07:06:54.099Z,3.35
2023-08-06T07:07:55.627Z,3.30
2023-08-06T07:09:00.141Z,3.13
2023-08-06T07:10:02.214Z,3.10
2023-08-06T07:11:04.479Z,3.15
2023-08-06T07:12:06.409Z,3.38
2023-08-06T07:13:08.018Z,3.35
2023-08-06T07:14:09.835Z,2.75
2023-08-06T07:15:11.661Z,3.10
2023-08-06T07:16:13.483Z,3.13
2023-08-06T07:17:15.275Z,3.47
2023-08-06T07:18:16.822Z,3.22
2023-08-06T07:19:18.691Z,21.60
2023-08-06T07:20:20.244Z,20.98
2023-08-06T07:21:21.939Z,14.88
2023-08-06T07:22:23.470Z,11.32
2023-08-06T07:23:26.406Z,5.45
2023-08-06T07:24:28.248Z,3.97
2023-08-06T07:25:29.858Z,3.25
2023-08-06T07:26:31.439Z,3.75
2023-08-06T07:27:33.613Z,3.10
2023-08-06T07:28:35.162Z,3.08
2023-08-06T07:29:37.050Z,3.05
2023-08-06T07:30:41.804Z,2.95
2023-08-06T07:31:43.373Z,2.90
2023-08-06T07:32:44.975Z,3.47
2023-08-06T07:33:46.632Z,3.20
2023-08-06T07:34:48.488Z,3.33
2023-08-06T07:35:50.172Z,3.08
2023-08-06T07:36:51.830Z,3.35
2023-08-06T07:37:54.512Z,3.55
2023-08-06T07:38:58.927Z,3.40
2023-08-06T07:40:00.964Z,3.47
2023-08-06T07:41:03.286Z,3.17
2023-08-06T07:42:06.804Z,3.17
2023-08-06T07:43:08.381Z,3.17
2023-08-06T07:44:13.190Z,3.13
2023-08-06T07:45:15.169Z,3.33
2023-08-06T07:46:17.746Z,2.70
2023-08-06T07:47:20.038Z,3.22
2023-08-06T07:48:21.653Z,3.35
2023-08-06T07:49:23.572Z,3.38
2023-08-06T07:50:25.145Z,3.05
2023-08-06T07:51:26.670Z,3.35
2023-08-06T07:52:28.209Z,3.70
2023-08-06T07:53:30.695Z,3.20
2023-08-06T07:54:32.636Z,3.08
2023-08-06T07:55:34.163Z,3.70
2023-08-06T07:56:37.784Z,3.25
2023-08-06T07:57:39.351Z,2.65
2023-08-06T07:58:40.880Z,2.50
2023-08-06T07:59:42.819Z,2.92
2023-08-06T08:00:46.524Z,3.08
2023-08-06T08:01:48.131Z,2.90
2023-08-06T08:02:49.861Z,3.08
2023-08-06T08:03:51.607Z,2.63
2023-08-06T08:04:53.582Z,3.25
2023-08-06T08:05:57.411Z,3.15
2023-08-06T08:06:59.114Z,2.70
2023-08-06T08:08:00.642Z,2.80
2023-08-06T08:09:02.512Z,3.00
2023-08-06T08:10:06.257Z,2.70
2023-08-06T08:11:08.681Z,2.90
2023-08-06T08:12:10.262Z,1.90
2023-08-06T08:13:12.139Z,1.88
2023-08-06T08:14:13.659Z,1.60
2023-08-06T08:15:15.196Z,1.60
2023-08-06T08:16:16.794Z,1.73
2023-08-06T08:17:18.430Z,1.40
2023-08-06T08:18:20.664Z,1.70
2023-08-06T08:20:24.467Z,1.15
2023-08-06T08:21:26.032Z,1.30
2023-08-06T08:22:27.562Z,1.10
2023-08-06T08:23:29.952Z,1.23
2023-08-06T08:24:31.770Z,1.42
2023-08-06T08:25:33.366Z,1.30
2023-08-06T08:26:34.998Z,1.20
2023-08-06T08:27:36.540Z,1.35
2023-08-06T08:28:38.434Z,1.33
2023-08-06T08:29:39.949Z,1.15
2023-08-06T08:30:44.527Z,1.10
2023-08-06T08:31:46.088Z,1.33
2023-08-06T08:32:48.105Z,1.00
2023-08-06T08:33:51.364Z,1.30
2023-08-06T08:34:54.591Z,0.90
2023-08-06T08:35:56.117Z,1.00
2023-08-06T08:36:58.185Z,0.80
2023-08-06T08:37:59.768Z,0.50
2023-08-06T08:39:01.643Z,1.00
2023-08-06T08:40:04.691Z,0.70
2023-08-06T08:41:06.721Z,0.80
2023-08-06T08:42:08.313Z,0.73
2023-08-06T08:43:09.842Z,0.82
2023-08-06T08:44:14.322Z,1.00
2023-08-06T08:45:16.001Z,0.40
2023-08-06T08:46:17.633Z,0.63
2023-08-06T08:47:19.250Z,0.70
2023-08-06T08:48:20.805Z,0.75
2023-08-06T08:49:23.094Z,0.73
2023-08-06T08:50:24.673Z,0.70
2023-08-06T08:51:27.712Z,0.70
2023-08-06T08:52:34.025Z,0.82
2023-08-06T08:53:35.982Z,0.80
2023-08-06T08:54:39.386Z,0.80
2023-08-06T08:55:41.076Z,0.82
2023-08-06T08:56:42.697Z,0.77
2023-08-06T08:57:44.744Z,0.90
2023-08-06T08:58:46.310Z,0.60
2023-08-06T08:59:48.158Z,0.98
2023-08-06T09:00:49.695Z,0.52
2023-08-06T09:01:52.714Z,0.90
2023-08-06T09:02:54.714Z,1.00
2023-08-06T09:03:56.706Z,1.00
2023-08-06T09:05:00.899Z,1.30
2023-08-06T09:06:02.431Z,1.20
2023-08-06T09:07:03.991Z,1.00
2023-08-06T09:08:05.791Z,1.10
2023-08-06T09:09:09.646Z,0.95
2023-08-06T09:10:12.045Z,0.80
2023-08-06T09:11:13.617Z,0.60
2023-08-06T09:12:15.999Z,0.90
2023-08-06T09:13:18.024Z,0.70
2023-08-06T09:14:20.049Z,0.80
2023-08-06T09:15:23.349Z,0.50
2023-08-06T09:16:26.239Z,0.95
2023-08-06T09:17:29.566Z,0.75
2023-08-06T09:18:31.274Z,0.80
2023-08-06T09:19:33.137Z,0.88
2023-08-06T09:20:36.527Z,0.63
2023-08-06T09:21:39.340Z,0.80
2023-08-06T09:22:41.028Z,0.85
2023-08-06T09:23:42.579Z,0.70
2023-08-06T09:24:44.578Z,0.90
2023-08-06T09:25:46.086Z,0.60
2023-08-06T09:26:47.655Z,0.73
2023-08-06T09:27:49.192Z,0.73
2023-08-06T09:28:50.780Z,0.60
2023-08-06T09:29:52.685Z,0.30
2023-08-06T09:30:56.256Z,0.60
2023-08-06T09:31:58.506Z,0.70
2023-08-06T09:33:00.464Z,0.60
2023-08-06T09:34:02.686Z,0.82
2023-08-06T09:35:06.672Z,0.57
2023-08-06T09:36:09.960Z,0.63
2023-08-06T09:37:20.024Z,0.80
2023-08-06T09:38:24.597Z,0.30
2023-08-06T09:39:30.480Z,0.63
2023-08-06T09:40:32.787Z,0.40
2023-08-06T09:41:34.357Z,0.70
2023-08-06T09:42:37.830Z,0.50
2023-08-06T09:43:43.539Z,0.70
2023-08-06T09:44:45.563Z,0.80
2023-08-06T09:45:47.327Z,0.80
2023-08-06T09:46:50.235Z,1.00
2023-08-06T09:48:53.365Z,0.60
2023-08-06T09:49:55.274Z,0.60
2023-08-06T09:50:56.970Z,0.80
2023-08-06T09:51:59.346Z,0.75
2023-08-06T09:53:01.482Z,0.68
2023-08-06T09:54:13.303Z,0.82
2023-08-06T09:55:23.287Z,0.70
2023-08-06T09:56:27.603Z,0.60
2023-08-06T09:57:29.164Z,0.60
2023-08-06T09:58:32.168Z,0.60
2023-08-06T09:59:33.765Z,0.63
2023-08-06T10:00:39.968Z,0.70
2023-08-06T10:01:41.976Z,0.70
2023-08-06T10:02:43.574Z,0.90
2023-08-06T10:03:45.420Z,0.60
2023-08-06T10:04:55.093Z,0.57
2023-08-06T10:05:58.144Z,0.77
2023-08-06T10:06:59.667Z,0.80
2023-08-06T10:08:01.361Z,0.70
2023-08-06T10:09:03.799Z,0.80
2023-08-06T10:10:06.037Z,0.60
2023-08-06T10:11:07.581Z,0.82
2023-08-06T10:12:09.119Z,0.65
2023-08-06T10:13:10.682Z,0.60
2023-08-06T10:14:14.173Z,0.70
2023-08-06T10:15:18.037Z,0.70
2023-08-06T10:16:19.653Z,0.90
2023-08-06T10:17:22.035Z,1.45
2023-08-06T10:18:23.912Z,1.10
2023-08-06T10:19:25.873Z,1.10
2023-08-06T10:20:27.918Z,0.80
2023-08-06T10:21:31.584Z,0.75
2023-08-06T10:22:33.851Z,0.63
2023-08-06T10:23:36.537Z,0.80
2023-08-06T10:24:57.573Z,0.98
2023-08-06T10:26:01.175Z,0.70
2023-08-06T10:27:02.724Z,0.77
2023-08-06T10:28:10.911Z,0.70
2023-08-06T10:29:41.958Z,0.60
2023-08-06T10:30:47.712Z,0.60
2023-08-06T10:31:56.514Z,0.70
2023-08-06T10:33:02.497Z,0.63
2023-08-06T10:34:04.071Z,0.80
2023-08-06T10:35:06.176Z,0.95
2023-08-06T10:36:10.863Z,0.75
2023-08-06T10:37:12.411Z,0.80
2023-08-06T10:38:23.998Z,0.80
2023-08-06T10:39:31.124Z,0.70
2023-08-06T10:40:34.071Z,0.85
2023-08-06T10:41:35.712Z,0.65
2023-08-06T10:42:38.090Z,0.80
2023-08-06T10:43:40.113Z,0.60
2023-08-06T10:45:17.600Z,1.10
2023-08-06T10:46:28.671Z,0.73
2023-08-06T10:47:30.323Z,0.82
2023-08-06T10:48:41.752Z,0.90
2023-08-06T10:49:43.629Z,0.88
2023-08-06T10:50:45.195Z,0.73
2023-08-06T10:51:46.782Z,0.80
2023-08-06T10:52:48.448Z,0.80
2023-08-06T10:53:51.147Z,0.70
2023-08-06T10:54:53.006Z,0.70
2023-08-06T10:55:54.581Z,0.85
2023-08-06T10:56:56.184Z,0.30
2023-08-06T10:57:57.727Z,0.70
2023-08-06T10:59:00.057Z,0.80
2023-08-06T11:01:06.166Z,0.45
2023-08-06T11:02:07.751Z,0.70
2023-08-06T11:03:09.533Z,0.75
2023-08-06T11:04:16.931Z,0.80
2023-08-06T11:05:18.945Z,0.50
2023-08-06T11:06:21.346Z,0.80
2023-08-06T11:07:24.633Z,0.60
2023-08-06T11:08:29.964Z,1.13
2023-08-06T11:09:31.507Z,0.60
2023-08-06T11:10:36.288Z,0.63
2023-08-06T11:11:38.595Z,0.60
2023-08-06T11:12:40.284Z,0.77
2023-08-06T11:13:43.021Z,0.70
2023-08-06T11:14:46.593Z,0.63
2023-08-06T11:15:48.449Z,0.80
2023-08-06T11:16:51.269Z,0.73
2023-08-06T11:18:55.347Z,0.70
2023-08-06T11:21:03.147Z,0.75
2023-08-06T11:22:04.768Z,0.60
2023-08-06T11:23:06.884Z,0.68
2023-08-06T11:24:08.435Z,0.70
2023-08-06T11:25:10.076Z,0.73
2023-08-06T11:26:11.952Z,0.70
2023-08-06T11:27:17.542Z,0.70
2023-08-06T11:28:22.527Z,0.60
2023-08-06T11:29:24.313Z,0.63
2023-08-06T11:30:26.047Z,0.68
2023-08-06T11:31:27.900Z,0.63
2023-08-06T11:32:29.568Z,0.80
2023-08-06T11:33:31.252Z,0.80
2023-08-06T11:34:32.795Z,0.70
2023-08-06T11:35:37.413Z,0.77
2023-08-06T11:36:41.623Z,0.85
2023-08-06T11:37:47.048Z,0.77
2023-08-06T11:38:48.592Z,0.80
2023-08-06T11:39:50.224Z,0.82
2023-08-06T11:40:52.049Z,0.80
2023-08-06T11:41:53.765Z,0.70
2023-08-06T11:42:55.586Z,0.65
2023-08-06T11:43:57.425Z,0.80
2023-08-06T11:44:59.042Z,0.70
2023-08-06T11:46:01.767Z,0.80
2023-08-06T11:47:05.766Z,0.70
2023-08-06T11:48:12.985Z,0.70
2023-08-06T11:49:26.230Z,0.80
2023-08-06T11:50:28.016Z,0.90
2023-08-06T11:51:29.939Z,0.70
2023-08-06T11:52:32.040Z,0.70
2023-08-06T11:53:40.869Z,0.57
2023-08-06T11:54:42.953Z,0.70
2023-08-06T11:55:44.947Z,0.80
2023-08-06T11:56:47.216Z,0.70
2023-08-06T11:57:49.724Z,0.65
2023-08-06T11:58:53.613Z,0.85
2023-08-06T11:59:55.143Z,0.70
2023-08-06T12:00:57.451Z,0.70
2023-08-06T12:01:59.192Z,0.50
2023-08-06T12:03:04.098Z,0.80
2023-08-06T12:04:06.701Z,0.88
2023-08-06T12:05:10.748Z,0.32
2023-08-06T12:06:12.638Z,0.85
2023-08-06T12:07:14.166Z,0.80
2023-08-06T12:08:15.857Z,0.68
2023-08-06T12:09:18.298Z,0.82
2023-08-06T12:10:20.787Z,0.80
2023-08-06T12:11:22.766Z,0.80
2023-08-06T12:12:24.787Z,0.77
2023-08-06T12:13:26.322Z,1.00
2023-08-06T12:14:27.885Z,0.90
2023-08-06T12:15:31.100Z,0.80
2023-08-06T12:16:34.476Z,0.93
2023-08-06T12:17:36.315Z,0.60
2023-08-06T12:18:37.962Z,0.60
2023-08-06T12:19:39.659Z,0.70
2023-08-06T12:20:41.517Z,0.65
2023-08-06T12:21:43.508Z,0.50
2023-08-06T12:22:46.633Z,0.60
2023-08-06T12:23:48.172Z,0.52
2023-08-06T12:24:49.757Z,0.80
2023-08-06T12:25:51.459Z,0.60
2023-08-06T12:26:53.465Z,0.70
2023-08-06T12:27:55.062Z,0.80
2023-08-06T12:29:01.363Z,0.70
2023-08-06T12:30:04.684Z,0.70
2023-08-06T12:31:06.327Z,0.30
2023-08-06T12:32:08.208Z,0.65
2023-08-06T12:33:10.732Z,0.73
2023-08-06T12:34:12.287Z,0.45
2023-08-06T12:35:15.206Z,0.93
2023-08-06T12:36:16.791Z,0.50
2023-08-06T12:37:18.369Z,1.15
2023-08-06T12:38:19.906Z,0.60
2023-08-06T12:39:21.420Z,0.75
2023-08-06T12:40:35.555Z,1.10
2023-08-06T12:41:38.585Z,0.90
2023-08-06T12:42:40.116Z,0.75
2023-08-06T12:43:41.636Z,0.70
2023-08-06T12:44:43.168Z,0.80
2023-08-06T12:45:44.691Z,1.00
2023-08-06T12:46:46.535Z,0.85
2023-08-06T12:47:48.642Z,1.00
2023-08-06T12:48:50.348Z,0.93
2023-08-06T12:49:51.945Z,0.80
2023-08-06T12:50:53.487Z,0.80
2023-08-06T12:51:55.342Z,0.75
2023-08-06T12:52:57.098Z,0.77
2023-08-06T12:53:58.644Z,0.80
2023-08-06T12:55:00.237Z,0.82
2023-08-06T12:56:01.901Z,0.80
2023-08-06T12:57:03.857Z,0.88
2023-08-06T12:58:05.376Z,0.85
2023-08-06T12:59:06.919Z,0.90
2023-08-06T13:00:08.854Z,0.50
2023-08-06T13:01:10.405Z,0.80
2023-08-06T13:02:11.943Z,0.80
2023-08-06T13:03:13.644Z,0.73
2023-08-06T13:04:22.048Z,0.90
2023-08-06T13:05:24.708Z,0.68
2023-08-06T13:06:26.267Z,0.70
2023-08-06T13:07:28.315Z,0.60
2023-08-06T13:08:29.839Z,0.50
2023-08-06T13:09:33.066Z,0.80
2023-08-06T13:10:34.979Z,0.90
2023-08-06T13:11:37.206Z,0.73
2023-08-06T13:12:38.726Z,0.77
2023-08-06T13:13:40.240Z,0.75
2023-08-06T13:14:41.764Z,0.85
2023-08-06T13:15:43.333Z,0.80
2023-08-06T13:16:45.813Z,0.60
2023-08-06T13:17:47.742Z,0.70
2023-08-06T13:18:49.351Z,0.80
2023-08-06T13:19:50.852Z,0.70
2023-08-06T13:20:55.375Z,0.63
2023-08-06T13:22:02.932Z,0.90
2023-08-06T13:23:04.529Z,0.80
2023-08-06T13:24:06.047Z,0.63
2023-08-06T13:25:07.763Z,0.70
2023-08-06T13:26:09.329Z,0.60
2023-08-06T13:27:11.228Z,0.60
2023-08-06T13:28:12.842Z,0.80
2023-08-06T13:29:14.355Z,0.90
2023-08-06T13:30:16.461Z,0.65
2023-08-06T13:31:18.271Z,0.88
2023-08-06T13:32:19.852Z,0.73
2023-08-06T13:33:22.320Z,0.20
2023-08-06T13:34:24.446Z,0.70
2023-08-06T13:35:26.047Z,0.70
2023-08-06T13:36:28.115Z,0.52
2023-08-06T13:37:29.724Z,0.80
2023-08-06T13:38:31.265Z,0.68
2023-08-06T13:39:32.902Z,0.32
2023-08-06T13:40:34.556Z,0.30
2023-08-06T13:41:36.121Z,0.55
2023-08-06T13:42:38.330Z,0.60
2023-08-06T13:43:40.399Z,0.68
2023-08-06T13:44:41.944Z,0.52
2023-08-06T13:45:43.531Z,0.80
2023-08-06T13:46:45.196Z,0.65
2023-08-06T13:47:47.286Z,0.60
2023-08-06T13:48:52.134Z,0.65
2023-08-06T13:49:53.981Z,0.28
2023-08-06T13:50:55.533Z,0.70
2023-08-06T13:52:08.008Z,0.57
2023-08-06T13:53:18.130Z,0.60
2023-08-06T13:54:21.733Z,0.55
2023-08-06T13:55:23.710Z,0.68
2023-08-06T13:56:25.622Z,0.68